createdAt,value
2018-10-01T00:01:17.973Z,17.70
2018-10-01T00:03:45.202Z,20.00
2018-10-01T00:06:12.457Z,19.07
2018-10-01T00:08:39.717Z,18.97
2018-10-01T00:11:06.940Z,18.87
2018-10-01T00:13:34.232Z,15.03
2018-10-01T00:16:01.925Z,18.47
2018-10-01T00:18:29.374Z,17.90
2018-10-01T00:21:02.312Z,16.53
2018-10-01T00:23:29.544Z,17.93
2018-10-01T00:25:56.900Z,19.93
2018-10-01T00:28:24.180Z,20.10
2018-10-01T00:30:51.440Z,14.73
2018-10-01T00:33:18.703Z,17.23
2018-10-01T00:35:45.978Z,18.93
2018-10-01T00:38:13.449Z,19.57
2018-10-01T00:40:40.777Z,17.53
2018-10-01T00:43:08.004Z,20.77
2018-10-01T00:45:35.773Z,23.30
2018-10-01T00:48:03.076Z,19.97
2018-10-01T00:50:30.352Z,24.10
2018-10-01T00:52:57.578Z,29.33
2018-10-01T00:55:25.812Z,26.40
2018-10-01T00:57:54.145Z,25.50
2018-10-01T01:00:21.405Z,25.97
2018-10-01T01:02:48.625Z,24.60
2018-10-01T01:05:15.900Z,26.90
2018-10-01T01:07:43.344Z,25.50
2018-10-01T01:10:10.600Z,31.37
2018-10-01T01:12:37.924Z,31.93
2018-10-01T01:15:05.217Z,34.00
2018-10-01T01:17:32.444Z,39.87
2018-10-01T01:19:59.700Z,33.77
2018-10-01T01:22:26.921Z,39.07
2018-10-01T01:24:54.189Z,37.00
2018-10-01T01:27:22.412Z,43.83
2018-10-01T01:29:49.641Z,34.37
2018-10-01T01:32:16.888Z,37.97
2018-10-01T01:34:44.144Z,36.20
2018-10-01T01:37:11.361Z,40.60
2018-10-01T01:39:38.624Z,39.77
2018-10-01T01:42:05.920Z,34.50
2018-10-01T01:44:33.145Z,34.20
2018-10-01T01:47:00.381Z,35.80
2018-10-01T01:49:27.648Z,39.07
2018-10-01T01:51:54.928Z,40.93
2018-10-01T01:54:22.179Z,41.27
2018-10-01T01:56:49.419Z,41.80
2018-10-01T01:59:16.769Z,46.13
2018-10-01T02:01:44.027Z,47.47
2018-10-01T02:04:11.256Z,52.60
2018-10-01T02:06:38.478Z,55.60
2018-10-01T02:09:07.738Z,49.67
2018-10-01T02:11:34.976Z,49.53
2018-10-01T02:14:03.267Z,48.23
2018-10-01T02:16:31.491Z,41.70
2018-10-01T02:18:58.773Z,43.03
2018-10-01T02:21:26.040Z,47.33
2018-10-01T02:23:53.276Z,45.13
2018-10-01T02:26:20.545Z,51.30
2018-10-01T02:28:47.771Z,52.20
2018-10-01T02:31:15.017Z,46.57
2018-10-01T02:33:42.293Z,47.40
2018-10-01T02:36:09.528Z,49.27
2018-10-01T02:38:36.788Z,54.03
2018-10-01T02:41:04.492Z,59.53
2018-10-01T02:43:32.380Z,61.70
2018-10-01T02:45:59.613Z,60.90
2018-10-01T02:48:26.883Z,63.47
2018-10-01T02:50:54.125Z,60.10
2018-10-01T02:53:27.260Z,65.30
2018-10-01T02:55:54.495Z,67.20
2018-10-01T02:58:21.708Z,65.60
2018-10-01T03:00:49.204Z,64.97
2018-10-01T03:03:16.433Z,55.97
2018-10-01T03:05:43.888Z,75.70
2018-10-01T03:08:11.100Z,64.20
2018-10-01T03:10:38.341Z,56.57
2018-10-01T03:13:06.632Z,63.83
2018-10-01T03:15:33.952Z,57.50
2018-10-01T03:18:01.209Z,62.60
2018-10-01T03:20:28.457Z,56.03
2018-10-01T03:22:55.689Z,58.70
2018-10-01T03:25:23.180Z,53.37
2018-10-01T03:27:50.396Z,51.13
2018-10-01T03:30:17.632Z,53.40
2018-10-01T03:32:44.917Z,47.00
2018-10-01T03:35:12.939Z,55.30
2018-10-01T03:37:41.201Z,54.40
2018-10-01T03:40:08.573Z,60.03
2018-10-01T03:42:35.840Z,47.77
2018-10-01T03:45:03.398Z,61.37
2018-10-01T03:47:30.629Z,46.23
2018-10-01T03:49:57.877Z,59.37
2018-10-01T03:52:25.128Z,52.17
2018-10-01T03:54:52.363Z,47.77
2018-10-01T03:57:19.745Z,69.10
2018-10-01T03:59:46.979Z,57.83
2018-10-01T04:02:15.229Z,55.37
2018-10-01T04:04:42.469Z,54.43
2018-10-01T04:07:09.688Z,52.20
2018-10-01T04:09:36.977Z,44.67
2018-10-01T04:12:04.216Z,44.70
2018-10-01T04:14:31.453Z,43.73
2018-10-01T04:16:58.691Z,40.07
2018-10-01T04:19:26.520Z,38.20
2018-10-01T04:21:53.813Z,31.47
2018-10-01T04:24:21.037Z,31.00
2018-10-01T04:26:48.287Z,28.80
2018-10-01T04:29:16.527Z,27.40
2018-10-01T04:31:44.550Z,28.57
2018-10-01T04:34:11.841Z,27.43
2018-10-01T04:36:39.164Z,22.87
2018-10-01T04:39:08.875Z,29.20
2018-10-01T04:41:36.237Z,27.47
2018-10-01T04:44:03.516Z,14.10
2018-10-01T04:46:30.764Z,16.00
2018-10-01T04:48:58.005Z,13.57
2018-10-01T04:51:25.276Z,10.57
2018-10-01T04:53:52.528Z,9.00
2018-10-01T04:56:19.801Z,11.40
2018-10-01T04:58:47.068Z,8.20
2018-10-01T05:01:14.285Z,9.20
2018-10-01T05:03:42.545Z,8.33
2018-10-01T05:06:10.234Z,5.13
2018-10-01T05:08:37.496Z,4.93
2018-10-01T05:11:04.790Z,5.30
2018-10-01T05:13:31.992Z,6.20
2018-10-01T05:15:59.210Z,7.53
2018-10-01T05:18:27.323Z,4.97
2018-10-01T05:20:54.593Z,5.00
2018-10-01T05:23:21.828Z,3.90
2018-10-01T05:25:49.093Z,3.57
2018-10-01T05:28:16.386Z,3.70
2018-10-01T05:30:43.628Z,3.27
2018-10-01T05:33:11.052Z,4.80
2018-10-01T05:35:38.337Z,2.43
2018-10-01T05:38:05.797Z,2.47
2018-10-01T05:40:33.043Z,3.07
2018-10-01T05:43:00.311Z,2.10
2018-10-01T05:45:27.552Z,2.70
2018-10-01T05:47:54.824Z,2.27
2018-10-01T05:50:22.096Z,1.83
2018-10-01T05:52:49.617Z,1.93
2018-10-01T05:55:16.864Z,2.03
2018-10-01T05:57:44.136Z,3.00
2018-10-01T06:00:11.476Z,2.63
2018-10-01T06:02:38.768Z,2.60
2018-10-01T06:05:06.065Z,1.90
2018-10-01T06:07:33.336Z,2.53
2018-10-01T06:10:00.816Z,2.90
2018-10-01T06:12:28.037Z,1.67
2018-10-01T06:14:55.296Z,2.10
2018-10-01T06:17:22.545Z,2.60
2018-10-01T06:19:49.832Z,2.50
2018-10-01T06:22:17.140Z,4.73
2018-10-01T06:24:44.385Z,4.03
2018-10-01T06:27:11.625Z,3.50
2018-10-01T06:29:38.848Z,3.20
2018-10-01T06:32:06.102Z,5.37
2018-10-01T06:34:33.322Z,3.03
2018-10-01T06:37:00.576Z,7.20
2018-10-01T06:39:27.856Z,5.80
2018-10-01T06:41:55.178Z,9.70
2018-10-01T06:44:22.334Z,9.20
2018-10-01T06:46:49.564Z,14.73
2018-10-01T06:49:16.802Z,17.30
2018-10-01T06:51:44.033Z,20.00
2018-10-01T06:54:11.480Z,19.80
2018-10-01T06:56:38.773Z,25.33
2018-10-01T06:59:06.080Z,23.77
2018-10-01T07:01:33.332Z,26.30
2018-10-01T07:04:00.612Z,20.87
2018-10-01T07:06:27.853Z,20.87
2018-10-01T07:08:55.101Z,27.10
2018-10-01T07:11:23.420Z,22.53
2018-10-01T07:13:50.604Z,24.40
2018-10-01T07:16:17.853Z,23.60
2018-10-01T07:18:45.083Z,25.17
2018-10-01T07:21:12.334Z,28.80
2018-10-01T07:23:39.593Z,26.13
2018-10-01T07:26:06.926Z,24.00
2018-10-01T07:28:34.197Z,30.65
2018-10-01T07:31:01.526Z,26.07
2018-10-01T07:33:28.784Z,23.13
2018-10-01T07:35:56.036Z,27.83
2018-10-01T07:38:24.281Z,21.65
2018-10-01T07:40:51.518Z,28.20
2018-10-01T07:43:18.776Z,19.70
2018-10-01T07:45:46.019Z,14.80
2018-10-01T07:48:13.276Z,16.03
2018-10-01T07:50:40.644Z,18.90
2018-10-01T07:53:07.825Z,14.70
2018-10-01T07:55:35.079Z,25.20
2018-10-01T07:58:02.374Z,20.03
2018-10-01T08:00:29.699Z,16.93
2018-10-01T08:02:56.905Z,17.10
2018-10-01T08:05:24.157Z,15.20
2018-10-01T08:07:51.405Z,20.60
2018-10-01T08:10:18.681Z,15.23
2018-10-01T08:12:45.972Z,14.17
2018-10-01T08:15:13.232Z,11.50
2018-10-01T08:17:40.487Z,14.90
2018-10-01T08:20:07.761Z,15.07
2018-10-01T08:22:35.050Z,10.50
2018-10-01T08:25:02.386Z,13.57
2018-10-01T08:27:29.602Z,13.77
2018-10-01T08:29:56.929Z,13.23
2018-10-01T08:32:24.167Z,12.30
2018-10-01T08:34:51.410Z,12.50
2018-10-01T08:37:18.673Z,12.83
2018-10-01T08:39:45.937Z,11.67
2018-10-01T08:42:13.189Z,11.10
2018-10-01T08:44:40.424Z,10.83
2018-10-01T08:47:07.765Z,9.43
2018-10-01T08:50:42.684Z,13.70
2018-10-01T08:53:24.592Z,13.15
2018-10-01T08:55:51.828Z,12.15
2018-10-01T08:58:19.051Z,13.00
2018-10-01T09:00:46.331Z,16.07
2018-10-01T09:03:13.868Z,13.83
2018-10-01T09:05:41.116Z,12.85
2018-10-01T09:08:08.473Z,15.05
2018-10-01T09:10:35.826Z,17.30
2018-10-01T09:13:03.060Z,16.45
2018-10-01T09:15:30.315Z,18.80
2018-10-01T09:17:57.585Z,19.40
2018-10-01T09:20:24.853Z,22.60
2018-10-01T09:22:52.096Z,19.40
2018-10-01T09:25:19.340Z,19.90
2018-10-01T09:27:46.577Z,16.25
2018-10-01T09:30:13.815Z,22.07
2018-10-01T09:32:41.087Z,24.55
2018-10-01T09:35:08.353Z,20.07
2018-10-01T09:37:35.593Z,29.73
2018-10-01T09:40:03.966Z,26.80
2018-10-01T09:42:31.157Z,30.23
2018-10-01T09:44:58.388Z,29.10
2018-10-01T09:47:25.632Z,29.15
2018-10-01T09:49:52.887Z,30.35
2018-10-01T09:52:20.270Z,35.83
2018-10-01T09:54:47.532Z,37.63
2018-10-01T09:57:14.978Z,37.53
2018-10-01T09:59:42.241Z,39.03
2018-10-01T10:02:09.548Z,29.75
2018-10-01T10:04:36.867Z,36.30
2018-10-01T10:07:04.049Z,33.92
2018-10-01T10:09:31.271Z,39.58
2018-10-01T10:11:58.533Z,31.20
2018-10-01T10:14:25.797Z,30.30
2018-10-01T10:16:53.079Z,30.72
2018-10-01T10:19:20.277Z,34.92
2018-10-01T10:21:47.724Z,37.00
2018-10-01T10:24:14.991Z,27.05
2018-10-01T10:26:42.505Z,32.93
2018-10-01T10:29:09.756Z,30.92
2018-10-01T10:31:37.541Z,27.95
2018-10-01T10:34:04.830Z,27.62
2018-10-01T10:36:32.088Z,30.48
2018-10-01T10:38:59.356Z,26.77
2018-10-01T10:41:26.816Z,24.80
2018-10-01T10:43:54.093Z,31.70
2018-10-01T10:46:21.465Z,24.75
2018-10-01T10:48:49.237Z,27.50
2018-10-01T10:51:16.540Z,30.15
2018-10-01T10:53:43.981Z,25.23
2018-10-01T10:56:11.357Z,31.62
2018-10-01T10:58:38.502Z,27.70
2018-10-01T11:01:05.989Z,29.02
2018-10-01T11:03:33.229Z,33.33
2018-10-01T11:06:00.502Z,32.35
2018-10-01T11:08:27.820Z,27.13
2018-10-01T11:10:56.017Z,32.65
2018-10-01T11:13:23.269Z,35.50
2018-10-01T11:15:50.552Z,31.57
2018-10-01T11:18:17.912Z,32.73
2018-10-01T11:20:45.089Z,30.17
2018-10-01T11:23:12.426Z,31.68
2018-10-01T11:25:40.898Z,28.00
2018-10-01T11:28:08.172Z,34.00
2018-10-01T11:30:35.420Z,31.33
2018-10-01T11:33:02.730Z,30.40
2018-10-01T11:35:29.996Z,25.37
2018-10-01T11:37:57.205Z,25.20
2018-10-01T11:40:24.452Z,32.33
2018-10-01T11:42:51.717Z,25.93
2018-10-01T11:45:19.065Z,27.40
2018-10-01T11:47:46.217Z,22.07
2018-10-01T11:50:13.478Z,20.57
2018-10-01T11:52:40.840Z,22.90
2018-10-01T11:55:08.113Z,20.80
2018-10-01T11:57:35.402Z,22.07
2018-10-01T12:00:02.913Z,23.10
2018-10-01T12:02:30.172Z,20.73
2018-10-01T12:04:57.401Z,20.17
2018-10-01T12:07:24.651Z,22.73
2018-10-01T12:09:52.021Z,27.40
2018-10-01T12:12:19.237Z,26.57
2018-10-01T12:14:46.469Z,23.70
2018-10-01T12:17:13.741Z,23.77
2018-10-01T12:19:40.993Z,26.13
2018-10-01T12:22:09.313Z,22.40
2018-10-01T12:24:36.507Z,25.73
2018-10-01T12:27:03.901Z,28.67
2018-10-01T12:29:31.116Z,30.92
2018-10-01T12:31:58.364Z,25.88
2018-10-01T12:34:25.586Z,29.87
2018-10-01T12:36:52.857Z,29.90
2018-10-01T12:41:52.253Z,32.60
2018-10-01T12:44:19.547Z,33.75
2018-10-01T12:46:46.809Z,30.63
2018-10-01T12:49:14.045Z,28.77
2018-10-01T12:51:41.397Z,26.73
2018-10-01T12:54:08.583Z,27.53
2018-10-01T12:56:35.820Z,24.00
2018-10-01T12:59:03.061Z,23.27
2018-10-01T13:01:31.328Z,28.43
2018-10-01T13:03:58.600Z,24.93
2018-10-01T13:06:25.973Z,29.43
2018-10-01T13:08:53.127Z,25.10
2018-10-01T13:11:20.396Z,34.90
2018-10-01T13:13:47.651Z,31.57
2018-10-01T13:16:14.888Z,28.23
2018-10-01T13:18:42.243Z,24.40
2018-10-01T13:21:09.381Z,23.07
2018-10-01T13:23:36.631Z,33.00
2018-10-01T13:26:04.329Z,28.60
2018-10-01T13:28:31.594Z,31.33
2018-10-01T13:30:58.805Z,34.77
2018-10-01T13:33:26.440Z,31.57
2018-10-01T13:35:53.728Z,37.50
2018-10-01T13:38:20.967Z,33.10
2018-10-01T13:40:48.233Z,34.83
2018-10-01T13:43:15.467Z,30.35
2018-10-01T13:45:42.700Z,37.80
2018-10-01T13:48:10.029Z,36.43
2018-10-01T13:50:38.276Z,34.70
2018-10-01T13:53:05.584Z,37.53
2018-10-01T13:55:32.825Z,39.90
2018-10-01T13:58:00.123Z,37.23
2018-10-01T14:00:27.436Z,34.60
2018-10-01T14:02:54.672Z,35.67
2018-10-01T14:05:21.929Z,34.27
2018-10-01T14:07:49.201Z,53.90
2018-10-01T14:10:16.469Z,40.60
2018-10-01T14:12:44.738Z,37.42
2018-10-01T14:15:11.992Z,39.03
2018-10-01T14:17:39.247Z,33.83
2018-10-01T14:20:06.717Z,33.10
2018-10-01T14:22:33.768Z,36.00
2018-10-01T14:25:02.262Z,36.43
2018-10-01T14:27:29.437Z,42.97
2018-10-01T14:29:56.675Z,36.07
2018-10-01T14:32:23.949Z,44.90
2018-10-01T14:34:51.257Z,38.90
2018-10-01T14:37:18.629Z,37.80
2018-10-01T14:39:45.897Z,39.60
2018-10-01T14:42:13.229Z,39.63
2018-10-01T14:44:40.405Z,40.33
2018-10-01T14:47:07.676Z,33.38
2018-10-01T14:49:34.908Z,32.90
2018-10-01T14:52:02.293Z,40.27
2018-10-01T14:54:29.586Z,42.55
2018-10-01T14:56:56.885Z,41.50
2018-10-01T14:59:24.072Z,39.65
2018-10-01T15:01:51.309Z,41.20
2018-10-01T15:04:18.556Z,43.00
2018-10-01T15:06:45.875Z,40.20
2018-10-01T15:09:13.144Z,34.10
2018-10-01T15:11:40.436Z,39.15
2018-10-01T15:14:07.792Z,39.33
2018-10-01T15:16:35.415Z,39.98
2018-10-01T15:19:02.697Z,41.73
2018-10-01T15:21:30.315Z,41.00
2018-10-01T15:23:57.620Z,47.25
2018-10-01T15:26:24.866Z,38.40
2018-10-01T15:28:52.089Z,43.30
2018-10-01T15:31:19.345Z,45.45
2018-10-01T15:33:50.058Z,44.93
2018-10-01T15:36:18.336Z,51.13
2018-10-01T15:38:47.188Z,44.33
2018-10-01T15:41:14.487Z,44.20
2018-10-01T15:43:41.957Z,43.13
2018-10-01T15:46:09.261Z,41.85
2018-10-01T15:48:37.193Z,39.40
2018-10-01T15:51:04.437Z,40.05
2018-10-01T15:53:31.692Z,40.83
2018-10-01T15:55:59.052Z,43.30
2018-10-01T15:58:26.397Z,44.38
2018-10-01T16:00:53.676Z,36.98
2018-10-01T16:03:20.966Z,34.63
2018-10-01T16:05:48.174Z,45.50
2018-10-01T16:08:15.422Z,40.35
2018-10-01T16:10:42.708Z,39.75
2018-10-01T16:13:09.984Z,35.98
2018-10-01T16:15:37.221Z,42.70
2018-10-01T16:18:04.553Z,38.23
2018-10-01T16:20:31.795Z,36.05
2018-10-01T16:22:59.037Z,38.95
2018-10-01T16:25:26.395Z,56.42
2018-10-01T16:27:53.628Z,39.10
2018-10-01T16:30:20.852Z,36.95
2018-10-01T16:32:48.117Z,33.13
2018-10-01T16:35:15.393Z,31.40
2018-10-01T16:37:42.644Z,32.60
2018-10-01T16:40:09.953Z,33.05
2018-10-01T16:42:37.260Z,33.33
2018-10-01T16:45:04.828Z,31.37
2018-10-01T16:47:32.108Z,33.75
2018-10-01T16:49:59.352Z,39.27
2018-10-01T16:52:26.613Z,33.02
2018-10-01T16:54:53.908Z,30.70
2018-10-01T16:57:21.219Z,33.63
2018-10-01T16:59:48.504Z,37.63
2018-10-01T17:02:15.757Z,37.03
2018-10-01T17:04:43.053Z,36.28
2018-10-01T17:07:10.307Z,36.95
2018-10-01T17:09:37.562Z,37.50
2018-10-01T17:12:04.831Z,44.20
2018-10-01T17:14:32.109Z,38.90
2018-10-01T17:16:59.364Z,39.92
2018-10-01T17:19:26.641Z,47.30
2018-10-01T17:21:53.911Z,42.38
2018-10-01T17:24:21.146Z,47.20
2018-10-01T17:26:48.387Z,51.45
2018-10-01T17:29:15.640Z,43.98
2018-10-01T17:31:42.862Z,39.63
2018-10-01T17:34:10.108Z,41.30
2018-10-01T17:36:37.348Z,42.20
2018-10-01T17:39:07.373Z,40.10
2018-10-01T17:41:34.777Z,30.00
2018-10-01T17:44:02.120Z,31.60
2018-10-01T17:46:29.349Z,27.40
2018-10-01T17:48:56.605Z,34.58
2018-10-01T17:51:23.881Z,33.13
2018-10-01T17:53:51.124Z,36.68
2018-10-01T17:56:18.361Z,34.43
2018-10-01T17:58:45.625Z,32.50
2018-10-01T18:01:12.893Z,33.38
2018-10-01T18:03:40.154Z,40.00
2018-10-01T18:06:07.495Z,40.08
2018-10-01T18:08:34.732Z,49.70
2018-10-01T18:11:02.212Z,47.83
2018-10-01T18:13:29.475Z,37.83
2018-10-01T18:15:56.760Z,40.92
2018-10-01T18:18:24.049Z,40.45
2018-10-01T18:20:51.549Z,40.60
2018-10-01T18:23:18.860Z,44.33
2018-10-01T18:25:46.109Z,42.30
2018-10-01T18:28:13.336Z,52.70
2018-10-01T18:30:40.617Z,42.00
2018-10-01T18:33:08.045Z,54.83
2018-10-01T18:35:35.280Z,47.95
2018-10-01T18:38:03.650Z,58.17
2018-10-01T18:40:30.916Z,52.62
2018-10-01T18:42:58.228Z,48.68
2018-10-01T18:45:25.495Z,54.38
2018-10-01T18:47:52.780Z,55.12
2018-10-01T18:50:20.105Z,50.10
2018-10-01T18:52:47.349Z,51.95
2018-10-01T18:55:14.675Z,46.90
2018-10-01T18:57:42.108Z,50.23
2018-10-01T19:00:10.154Z,41.35
2018-10-01T19:02:38.548Z,46.48
2018-10-01T19:05:06.498Z,48.50
2018-10-01T19:07:33.752Z,45.45
2018-10-01T19:10:01.300Z,47.93
2018-10-01T19:12:28.532Z,49.13
2018-10-01T19:14:55.883Z,41.58
2018-10-01T19:17:23.153Z,46.40
2018-10-01T19:19:50.445Z,38.92
2018-10-01T19:22:17.708Z,41.70
2018-10-01T19:24:44.968Z,49.53
2018-10-01T19:27:12.459Z,43.92
2018-10-01T19:29:39.670Z,35.70
2018-10-01T19:32:06.895Z,42.73
2018-10-01T19:34:34.229Z,40.52
2018-10-01T19:37:01.499Z,39.90
2018-10-01T19:39:31.752Z,39.13
2018-10-01T19:41:59.050Z,46.40
2018-10-01T19:44:26.342Z,43.20
2018-10-01T19:46:53.688Z,41.50
2018-10-01T19:49:21.417Z,41.15
2018-10-01T19:51:48.716Z,45.48
2018-10-01T19:54:15.952Z,45.50
2018-10-01T19:56:43.223Z,43.75
2018-10-01T19:59:10.434Z,43.45
2018-10-01T20:01:38.678Z,42.45
2018-10-01T20:04:06.725Z,46.63
2018-10-01T20:06:33.994Z,40.55
2018-10-01T20:09:01.484Z,41.60
2018-10-01T20:11:28.705Z,44.95
2018-10-01T20:13:55.926Z,39.48
2018-10-01T20:16:24.203Z,36.95
2018-10-01T20:18:51.853Z,42.85
2018-10-01T20:21:19.394Z,41.90
2018-10-01T20:23:46.736Z,37.70
2018-10-01T20:26:13.962Z,36.20
2018-10-01T20:28:41.430Z,38.05
2018-10-01T20:31:08.496Z,37.13
2018-10-01T20:33:35.720Z,21.75
2018-10-01T20:36:03.112Z,24.02
2018-10-01T20:38:30.300Z,25.88
2018-10-01T20:40:57.730Z,25.72
2018-10-01T20:43:24.917Z,29.27
2018-10-01T20:45:52.215Z,35.63
2018-10-01T20:48:19.485Z,34.13
2018-10-01T20:50:46.917Z,33.90
2018-10-01T20:53:14.254Z,36.28
2018-10-01T20:55:41.479Z,31.33
2018-10-01T20:58:08.941Z,31.85
2018-10-01T21:00:36.196Z,38.53
2018-10-01T21:03:03.471Z,33.63
2018-10-01T21:05:32.004Z,28.15
2018-10-01T21:07:59.232Z,34.60
2018-10-01T21:10:26.473Z,31.55
2018-10-01T21:12:53.732Z,27.02
2018-10-01T21:15:21.000Z,30.30
2018-10-01T21:17:48.303Z,32.20
2018-10-01T21:20:15.552Z,27.00
2018-10-01T21:22:42.786Z,32.28
2018-10-01T21:25:10.028Z,35.52
2018-10-01T21:27:37.285Z,29.10
2018-10-01T21:30:05.078Z,30.27
2018-10-01T21:32:32.357Z,26.80
2018-10-01T21:34:59.600Z,27.62
2018-10-01T21:37:26.887Z,26.30
2018-10-01T21:40:03.249Z,24.63
2018-10-01T21:42:30.528Z,28.50
2018-10-01T21:44:58.797Z,29.27
2018-10-01T21:47:26.971Z,26.33
2018-10-01T21:49:54.244Z,22.40
2018-10-01T21:52:21.520Z,21.55
2018-10-01T21:54:48.745Z,22.17
2018-10-01T21:57:16.013Z,26.80
2018-10-01T21:59:43.289Z,31.10
2018-10-01T22:02:10.521Z,29.05
2018-10-01T22:04:37.750Z,23.30
2018-10-01T22:07:05.040Z,25.65
2018-10-01T22:09:32.284Z,24.95
2018-10-01T22:11:59.556Z,21.23
2018-10-01T22:14:26.777Z,27.05
2018-10-01T22:16:54.021Z,23.05
2018-10-01T22:19:21.300Z,30.05
2018-10-01T22:21:48.552Z,24.27
2018-10-01T22:24:15.770Z,22.87
2018-10-01T22:26:42.984Z,25.05
2018-10-01T22:29:10.249Z,26.52
2018-10-01T22:31:37.488Z,18.48
2018-10-01T22:34:04.751Z,24.23
2018-10-01T22:36:32.038Z,23.62
2018-10-01T22:38:59.316Z,23.75
2018-10-01T22:41:26.630Z,22.90
2018-10-01T22:43:53.879Z,22.75
2018-10-01T22:46:21.093Z,21.23
2018-10-01T22:48:48.316Z,31.23
2018-10-01T22:51:15.564Z,23.83
2018-10-01T22:53:42.824Z,24.27
2018-10-01T22:56:10.056Z,20.20
2018-10-01T22:58:37.385Z,19.87
2018-10-01T23:01:04.715Z,15.75
2018-10-01T23:03:32.016Z,15.53
2018-10-01T23:05:59.298Z,11.38
2018-10-01T23:08:28.185Z,14.23
2018-10-01T23:10:55.432Z,15.48
2018-10-01T23:13:22.665Z,13.78
2018-10-01T23:15:49.924Z,15.48
2018-10-01T23:18:17.836Z,15.05
2018-10-01T23:20:45.073Z,16.35
2018-10-01T23:23:12.292Z,13.70
2018-10-01T23:25:39.532Z,9.08
2018-10-01T23:28:06.749Z,10.90
2018-10-01T23:30:33.979Z,12.13
2018-10-01T23:33:01.743Z,10.30
2018-10-01T23:35:29.014Z,8.88
2018-10-01T23:37:56.250Z,10.38
2018-10-01T23:40:23.544Z,10.25
2018-10-01T23:42:50.764Z,11.97
2018-10-01T23:45:18.159Z,9.90
2018-10-01T23:47:45.401Z,11.18
2018-10-01T23:50:12.660Z,9.35
2018-10-01T23:52:39.923Z,9.08
2018-10-01T23:55:07.396Z,13.80
2018-10-01T23:57:34.829Z,11.45
